sensor_id;sensor_type;location;lat;lon;timestamp;temperature;humidity
79698;SHT31;69168;42.708;23.286;2024-03-23T00:51:11;6.73;60.22
79698;SHT31;69168;42.708;23.286;2024-03-23T00:56:02;6.71;58.37
79698;SHT31;69168;42.708;23.286;2024-03-23T00:58:31;6.40;58.80
79698;SHT31;69168;42.708;23.286;2024-03-23T01:00:56;6.19;59.55
79698;SHT31;69168;42.708;23.286;2024-03-23T01:03:22;6.15;59.71
79698;SHT31;69168;42.708;23.286;2024-03-23T01:05:48;6.26;59.35
79698;SHT31;69168;42.708;23.286;2024-03-23T01:08:14;6.15;59.63
79698;SHT31;69168;42.708;23.286;2024-03-23T01:10:40;6.12;59.75
79698;SHT31;69168;42.708;23.286;2024-03-23T01:13:05;6.03;60.06
79698;SHT31;69168;42.708;23.286;2024-03-23T01:15:31;5.98;60.27
79698;SHT31;69168;42.708;23.286;2024-03-23T01:17:57;6.01;60.16
79698;SHT31;69168;42.708;23.286;2024-03-23T01:20:22;6.05;60.28
79698;SHT31;69168;42.708;23.286;2024-03-23T01:22:48;6.08;60.08
79698;SHT31;69168;42.708;23.286;2024-03-23T01:25:13;5.91;60.39
79698;SHT31;69168;42.708;23.286;2024-03-23T01:27:39;5.94;60.35
79698;SHT31;69168;42.708;23.286;2024-03-23T01:30:05;5.71;60.77
79698;SHT31;69168;42.708;23.286;2024-03-23T01:32:30;5.77;60.69
79698;SHT31;69168;42.708;23.286;2024-03-23T01:34:56;5.90;60.52
79698;SHT31;69168;42.708;23.286;2024-03-23T01:37:21;5.78;60.62
79698;SHT31;69168;42.708;23.286;2024-03-23T01:39:47;5.84;60.68
79698;SHT31;69168;42.708;23.286;2024-03-23T01:42:12;5.85;60.74
79698;SHT31;69168;42.708;23.286;2024-03-23T01:44:38;5.84;60.38
79698;SHT31;69168;42.708;23.286;2024-03-23T01:47:03;5.61;61.23
79698;SHT31;69168;42.708;23.286;2024-03-23T01:49:29;5.48;61.49
79698;SHT31;69168;42.708;23.286;2024-03-23T01:51:55;5.22;62.27
79698;SHT31;69168;42.708;23.286;2024-03-23T01:54:21;5.39;62.04
79698;SHT31;69168;42.708;23.286;2024-03-23T01:56:47;5.36;62.28
79698;SHT31;69168;42.708;23.286;2024-03-23T01:59:13;5.53;61.95
79698;SHT31;69168;42.708;23.286;2024-03-23T02:01:38;5.23;62.22
79698;SHT31;69168;42.708;23.286;2024-03-23T02:04:04;5.29;62.20
79698;SHT31;69168;42.708;23.286;2024-03-23T02:06:30;5.15;62.29
79698;SHT31;69168;42.708;23.286;2024-03-23T02:08:56;5.35;62.04
79698;SHT31;69168;42.708;23.286;2024-03-23T02:11:21;5.44;61.56
79698;SHT31;69168;42.708;23.286;2024-03-23T02:13:47;5.40;61.89
79698;SHT31;69168;42.708;23.286;2024-03-23T02:16:13;5.33;62.22
79698;SHT31;69168;42.708;23.286;2024-03-23T02:18:38;5.09;62.79
79698;SHT31;69168;42.708;23.286;2024-03-23T02:21:04;5.19;62.38
79698;SHT31;69168;42.708;23.286;2024-03-23T02:23:30;5.16;62.54
79698;SHT31;69168;42.708;23.286;2024-03-23T02:25:55;5.16;62.59
79698;SHT31;69168;42.708;23.286;2024-03-23T02:28:21;5.28;61.96
79698;SHT31;69168;42.708;23.286;2024-03-23T02:30:49;5.30;62.13
79698;SHT31;69168;42.708;23.286;2024-03-23T02:33:14;5.28;62.36
79698;SHT31;69168;42.708;23.286;2024-03-23T02:35:40;5.30;62.41
79698;SHT31;69168;42.708;23.286;2024-03-23T02:38:06;5.37;62.15
79698;SHT31;69168;42.708;23.286;2024-03-23T02:40:31;5.29;62.23
79698;SHT31;69168;42.708;23.286;2024-03-23T02:42:57;5.35;62.13
79698;SHT31;69168;42.708;23.286;2024-03-23T02:45:22;5.32;62.46
79698;SHT31;69168;42.708;23.286;2024-03-23T02:47:48;5.30;62.06
79698;SHT31;69168;42.708;23.286;2024-03-23T02:50:18;5.32;62.12
79698;SHT31;69168;42.708;23.286;2024-03-23T02:52:43;5.32;61.90
79698;SHT31;69168;42.708;23.286;2024-03-23T02:55:09;5.26;61.94
79698;SHT31;69168;42.708;23.286;2024-03-23T02:57:35;5.25;62.24
79698;SHT31;69168;42.708;23.286;2024-03-23T03:00:00;5.20;62.54
79698;SHT31;69168;42.708;23.286;2024-03-23T03:02:26;5.19;62.26
79698;SHT31;69168;42.708;23.286;2024-03-23T03:04:51;5.15;62.35
79698;SHT31;69168;42.708;23.286;2024-03-23T03:07:17;5.19;62.31
79698;SHT31;69168;42.708;23.286;2024-03-23T03:09:42;5.05;62.78
79698;SHT31;69168;42.708;23.286;2024-03-23T03:12:08;5.09;62.79
79698;SHT31;69168;42.708;23.286;2024-03-23T03:14:34;5.08;62.68
79698;SHT31;69168;42.708;23.286;2024-03-23T03:17:00;5.09;62.69
79698;SHT31;69168;42.708;23.286;2024-03-23T03:19:26;5.16;62.24
79698;SHT31;69168;42.708;23.286;2024-03-23T03:21:51;5.04;62.34
79698;SHT31;69168;42.708;23.286;2024-03-23T03:24:17;4.96;62.88
79698;SHT31;69168;42.708;23.286;2024-03-23T03:26:43;4.93;62.86
79698;SHT31;69168;42.708;23.286;2024-03-23T03:29:08;5.01;62.68
79698;SHT31;69168;42.708;23.286;2024-03-23T03:31:34;4.98;62.85
79698;SHT31;69168;42.708;23.286;2024-03-23T03:33:59;5.01;62.95
79698;SHT31;69168;42.708;23.286;2024-03-23T03:36:25;4.95;63.14
79698;SHT31;69168;42.708;23.286;2024-03-23T03:38:50;4.95;62.81
79698;SHT31;69168;42.708;23.286;2024-03-23T03:41:16;4.96;62.84
79698;SHT31;69168;42.708;23.286;2024-03-23T03:43:41;5.04;62.46
79698;SHT31;69168;42.708;23.286;2024-03-23T03:46:07;5.02;62.51
79698;SHT31;69168;42.708;23.286;2024-03-23T03:48:36;5.02;62.64
79698;SHT31;69168;42.708;23.286;2024-03-23T03:51:02;4.93;63.16
79698;SHT31;69168;42.708;23.286;2024-03-23T03:53:28;4.99;62.97
79698;SHT31;69168;42.708;23.286;2024-03-23T03:55:53;4.93;63.01
79698;SHT31;69168;42.708;23.286;2024-03-23T03:58:19;4.96;62.75
79698;SHT31;69168;42.708;23.286;2024-03-23T04:00:44;4.92;62.79
79698;SHT31;69168;42.708;23.286;2024-03-23T04:03:10;4.89;63.05
79698;SHT31;69168;42.708;23.286;2024-03-23T04:05:36;4.84;63.38
79698;SHT31;69168;42.708;23.286;2024-03-23T04:08:01;5.01;62.57
79698;SHT31;69168;42.708;23.286;2024-03-23T04:10:27;4.98;62.89
79698;SHT31;69168;42.708;23.286;2024-03-23T04:12:52;4.82;63.29
79698;SHT31;69168;42.708;23.286;2024-03-23T04:15:19;4.78;63.91
79698;SHT31;69168;42.708;23.286;2024-03-23T04:17:44;4.84;63.62
79698;SHT31;69168;42.708;23.286;2024-03-23T04:20:10;4.81;63.75
79698;SHT31;69168;42.708;23.286;2024-03-23T04:22:37;4.80;63.64
79698;SHT31;69168;42.708;23.286;2024-03-23T04:25:03;4.78;63.82
79698;SHT31;69168;42.708;23.286;2024-03-23T04:27:32;4.80;63.76
79698;SHT31;69168;42.708;23.286;2024-03-23T04:29:58;4.81;63.57
79698;SHT31;69168;42.708;23.286;2024-03-23T04:32:26;4.77;63.47
79698;SHT31;69168;42.708;23.286;2024-03-23T04:34:52;4.65;63.96
79698;SHT31;69168;42.708;23.286;2024-03-23T04:37:17;4.74;63.79
79698;SHT31;69168;42.708;23.286;2024-03-23T04:39:43;4.77;63.87
79698;SHT31;69168;42.708;23.286;2024-03-23T04:42:08;4.78;63.77
79698;SHT31;69168;42.708;23.286;2024-03-23T04:44:34;4.73;63.69
79698;SHT31;69168;42.708;23.286;2024-03-23T04:47:03;4.75;63.84
79698;SHT31;69168;42.708;23.286;2024-03-23T04:49:28;4.78;63.95
79698;SHT31;69168;42.708;23.286;2024-03-23T04:51:54;4.80;63.68
79698;SHT31;69168;42.708;23.286;2024-03-23T04:54:19;4.68;63.81
79698;SHT31;69168;42.708;23.286;2024-03-23T04:56:45;4.46;64.74
79698;SHT31;69168;42.708;23.286;2024-03-23T04:59:11;4.58;64.25
79698;SHT31;69168;42.708;23.286;2024-03-23T05:01:37;4.67;64.06
79698;SHT31;69168;42.708;23.286;2024-03-23T05:04:04;4.65;64.13
79698;SHT31;69168;42.708;23.286;2024-03-23T05:06:30;4.65;64.18
79698;SHT31;69168;42.708;23.286;2024-03-23T05:08:59;4.65;64.23
79698;SHT31;69168;42.708;23.286;2024-03-23T05:11:24;4.74;64.39
79698;SHT31;69168;42.708;23.286;2024-03-23T05:13:53;4.74;64.22
79698;SHT31;69168;42.708;23.286;2024-03-23T05:16:18;4.82;64.10
79698;SHT31;69168;42.708;23.286;2024-03-23T05:18:44;4.88;64.03
79698;SHT31;69168;42.708;23.286;2024-03-23T05:21:09;4.93;63.77
79698;SHT31;69168;42.708;23.286;2024-03-23T05:23:35;5.02;63.54
79698;SHT31;69168;42.708;23.286;2024-03-23T05:26:00;4.89;64.10
79698;SHT31;69168;42.708;23.286;2024-03-23T05:28:26;5.02;63.89
79698;SHT31;69168;42.708;23.286;2024-03-23T05:30:52;4.93;64.03
79698;SHT31;69168;42.708;23.286;2024-03-23T05:33:21;4.84;64.47
79698;SHT31;69168;42.708;23.286;2024-03-23T05:35:47;4.87;64.57
79698;SHT31;69168;42.708;23.286;2024-03-23T05:38:13;4.93;64.51
79698;SHT31;69168;42.708;23.286;2024-03-23T05:40:39;4.96;64.37
79698;SHT31;69168;42.708;23.286;2024-03-23T05:43:06;4.99;64.25
79698;SHT31;69168;42.708;23.286;2024-03-23T05:45:32;5.16;63.75
79698;SHT31;69168;42.708;23.286;2024-03-23T05:47:57;5.22;63.78
79698;SHT31;69168;42.708;23.286;2024-03-23T05:50:23;5.36;63.18
79698;SHT31;69168;42.708;23.286;2024-03-23T05:52:49;5.42;62.46
79698;SHT31;69168;42.708;23.286;2024-03-23T05:55:15;5.43;62.42
79698;SHT31;69168;42.708;23.286;2024-03-23T05:57:41;5.53;62.39
79698;SHT31;69168;42.708;23.286;2024-03-23T06:00:07;5.44;62.48
79698;SHT31;69168;42.708;23.286;2024-03-23T06:02:44;5.58;62.17
79698;SHT31;69168;42.708;23.286;2024-03-23T06:05:12;5.73;61.70
79698;SHT31;69168;42.708;23.286;2024-03-23T06:07:38;5.83;61.48
79698;SHT31;69168;42.708;23.286;2024-03-23T06:10:05;5.87;61.59
79698;SHT31;69168;42.708;23.286;2024-03-23T06:12:31;5.90;61.21
79698;SHT31;69168;42.708;23.286;2024-03-23T06:14:57;5.83;61.29
79698;SHT31;69168;42.708;23.286;2024-03-23T06:17:22;5.88;61.31
79698;SHT31;69168;42.708;23.286;2024-03-23T06:19:48;5.97;61.16
79698;SHT31;69168;42.708;23.286;2024-03-23T06:22:14;6.06;60.65
79698;SHT31;69168;42.708;23.286;2024-03-23T06:24:40;5.88;61.26
79698;SHT31;69168;42.708;23.286;2024-03-23T06:27:05;5.99;61.00
79698;SHT31;69168;42.708;23.286;2024-03-23T06:29:31;5.95;61.35
79698;SHT31;69168;42.708;23.286;2024-03-23T06:31:57;5.94;61.54
79698;SHT31;69168;42.708;23.286;2024-03-23T06:34:23;6.15;61.22
79698;SHT31;69168;42.708;23.286;2024-03-23T06:36:49;6.23;61.00
79698;SHT31;69168;42.708;23.286;2024-03-23T06:39:15;6.23;60.96
79698;SHT31;69168;42.708;23.286;2024-03-23T06:41:52;6.34;60.81
79698;SHT31;69168;42.708;23.286;2024-03-23T06:44:18;6.44;60.22
79698;SHT31;69168;42.708;23.286;2024-03-23T06:46:45;6.47;60.28
79698;SHT31;69168;42.708;23.286;2024-03-23T06:49:11;6.60;60.44
79698;SHT31;69168;42.708;23.286;2024-03-23T06:51:36;6.71;59.84
79698;SHT31;69168;42.708;23.286;2024-03-23T06:54:03;6.70;60.20
79698;SHT31;69168;42.708;23.286;2024-03-23T06:56:29;6.71;60.70
79698;SHT31;69168;42.708;23.286;2024-03-23T06:58:59;6.70;60.26
79698;SHT31;69168;42.708;23.286;2024-03-23T07:01:24;6.78;59.79
79698;SHT31;69168;42.708;23.286;2024-03-23T07:03:50;6.85;59.44
79698;SHT31;69168;42.708;23.286;2024-03-23T07:06:15;7.02;59.59
79698;SHT31;69168;42.708;23.286;2024-03-23T07:08:41;7.18;58.75
79698;SHT31;69168;42.708;23.286;2024-03-23T07:11:06;7.24;58.34
79698;SHT31;69168;42.708;23.286;2024-03-23T07:13:32;7.02;58.29
79698;SHT31;69168;42.708;23.286;2024-03-23T07:15:58;7.13;58.35
79698;SHT31;69168;42.708;23.286;2024-03-23T07:18:25;7.71;56.99
79698;SHT31;69168;42.708;23.286;2024-03-23T07:20:57;7.54;57.84
79698;SHT31;69168;42.708;23.286;2024-03-23T07:23:24;7.64;57.86
79698;SHT31;69168;42.708;23.286;2024-03-23T07:26:16;7.64;57.91
79698;SHT31;69168;42.708;23.286;2024-03-23T07:28:43;7.68;57.38
79698;SHT31;69168;42.708;23.286;2024-03-23T07:31:11;7.56;57.78
79698;SHT31;69168;42.708;23.286;2024-03-23T07:33:42;7.60;57.75
79698;SHT31;69168;42.708;23.286;2024-03-23T07:36:08;7.54;58.12
79698;SHT31;69168;42.708;23.286;2024-03-23T07:38:34;7.61;57.94
79698;SHT31;69168;42.708;23.286;2024-03-23T07:41:10;7.71;57.84
79698;SHT31;69168;42.708;23.286;2024-03-23T07:43:38;7.67;57.74
79698;SHT31;69168;42.708;23.286;2024-03-23T07:46:04;7.77;57.26
79698;SHT31;69168;42.708;23.286;2024-03-23T07:48:30;7.87;57.66
79698;SHT31;69168;42.708;23.286;2024-03-23T07:51:05;7.91;57.24
79698;SHT31;69168;42.708;23.286;2024-03-23T07:53:31;7.92;57.69
79698;SHT31;69168;42.708;23.286;2024-03-23T07:56:23;7.96;56.92
79698;SHT31;69168;42.708;23.286;2024-03-23T07:58:48;8.01;57.60
79698;SHT31;69168;42.708;23.286;2024-03-23T08:01:15;8.13;57.48
79698;SHT31;69168;42.708;23.286;2024-03-23T08:03:43;8.22;57.12
79698;SHT31;69168;42.708;23.286;2024-03-23T08:06:16;8.30;57.67
79698;SHT31;69168;42.708;23.286;2024-03-23T08:08:44;8.28;56.19
79698;SHT31;69168;42.708;23.286;2024-03-23T08:11:13;8.32;56.25
79698;SHT31;69168;42.708;23.286;2024-03-23T08:13:41;8.54;55.57
79698;SHT31;69168;42.708;23.286;2024-03-23T08:16:07;8.56;55.60
79698;SHT31;69168;42.708;23.286;2024-03-23T08:18:34;8.60;56.32
79698;SHT31;69168;42.708;23.286;2024-03-23T08:23:27;8.92;56.55
79698;SHT31;69168;42.708;23.286;2024-03-23T08:25:57;8.87;55.60
79698;SHT31;69168;42.708;23.286;2024-03-23T08:28:23;8.82;55.21
79698;SHT31;69168;42.708;23.286;2024-03-23T08:30:48;8.87;55.25
79698;SHT31;69168;42.708;23.286;2024-03-23T08:33:17;8.80;55.86
79698;SHT31;69168;42.708;23.286;2024-03-23T08:35:42;8.88;55.89
79698;SHT31;69168;42.708;23.286;2024-03-23T08:38:08;9.02;55.79
79698;SHT31;69168;42.708;23.286;2024-03-23T08:40:33;9.15;55.21
79698;SHT31;69168;42.708;23.286;2024-03-23T08:42:59;9.23;55.54
79698;SHT31;69168;42.708;23.286;2024-03-23T08:45:25;9.29;54.69
79698;SHT31;69168;42.708;23.286;2024-03-23T08:47:51;9.39;55.18
79698;SHT31;69168;42.708;23.286;2024-03-23T08:50:17;9.46;55.24
79698;SHT31;69168;42.708;23.286;2024-03-23T08:52:45;9.54;55.71
79698;SHT31;69168;42.708;23.286;2024-03-23T08:55:11;9.69;55.49
79698;SHT31;69168;42.708;23.286;2024-03-23T08:57:36;9.81;56.38
79698;SHT31;69168;42.708;23.286;2024-03-23T09:00:02;9.87;55.72
79698;SHT31;69168;42.708;23.286;2024-03-23T09:02:28;10.01;55.52
79698;SHT31;69168;42.708;23.286;2024-03-23T09:04:53;10.08;55.92
79698;SHT31;69168;42.708;23.286;2024-03-23T09:07:19;10.30;55.40
79698;SHT31;69168;42.708;23.286;2024-03-23T09:09:45;10.23;53.90
79698;SHT31;69168;42.708;23.286;2024-03-23T09:12:10;10.28;53.71
79698;SHT31;69168;42.708;23.286;2024-03-23T09:14:35;10.30;54.97
79698;SHT31;69168;42.708;23.286;2024-03-23T09:17:01;10.56;54.19
79698;SHT31;69168;42.708;23.286;2024-03-23T09:19:28;10.56;53.79
79698;SHT31;69168;42.708;23.286;2024-03-23T09:21:54;10.75;52.27
79698;SHT31;69168;42.708;23.286;2024-03-23T09:24:20;10.84;51.73
79698;SHT31;69168;42.708;23.286;2024-03-23T09:26:46;10.77;51.27
79698;SHT31;69168;42.708;23.286;2024-03-23T09:29:12;10.75;50.83
79698;SHT31;69168;42.708;23.286;2024-03-23T09:31:37;10.92;50.36
79698;SHT31;69168;42.708;23.286;2024-03-23T09:34:03;10.95;51.37
79698;SHT31;69168;42.708;23.286;2024-03-23T09:36:29;11.09;51.36
79698;SHT31;69168;42.708;23.286;2024-03-23T09:38:55;11.11;51.62
79698;SHT31;69168;42.708;23.286;2024-03-23T09:41:20;11.43;51.06
79698;SHT31;69168;42.708;23.286;2024-03-23T09:43:46;11.62;49.40
79698;SHT31;69168;42.708;23.286;2024-03-23T09:46:16;11.67;49.78
79698;SHT31;69168;42.708;23.286;2024-03-23T09:48:43;11.83;49.94
79698;SHT31;69168;42.708;23.286;2024-03-23T09:51:11;12.04;49.78
79698;SHT31;69168;42.708;23.286;2024-03-23T09:53:37;12.15;48.42
79698;SHT31;69168;42.708;23.286;2024-03-23T09:56:03;12.32;46.86
79698;SHT31;69168;42.708;23.286;2024-03-23T09:58:29;12.35;47.26
79698;SHT31;69168;42.708;23.286;2024-03-23T10:00:57;12.40;47.70
79698;SHT31;69168;42.708;23.286;2024-03-23T10:03:23;12.49;48.17
79698;SHT31;69168;42.708;23.286;2024-03-23T10:06:00;12.93;47.71
79698;SHT31;69168;42.708;23.286;2024-03-23T10:08:25;13.19;47.61
79698;SHT31;69168;42.708;23.286;2024-03-23T10:10:54;13.32;46.19
79698;SHT31;69168;42.708;23.286;2024-03-23T10:13:26;13.46;46.20
79698;SHT31;69168;42.708;23.286;2024-03-23T10:15:56;13.52;45.09
79698;SHT31;69168;42.708;23.286;2024-03-23T10:18:23;13.62;45.45
79698;SHT31;69168;42.708;23.286;2024-03-23T10:23:44;13.90;45.52
79698;SHT31;69168;42.708;23.286;2024-03-23T10:26:28;14.11;43.09
79698;SHT31;69168;42.708;23.286;2024-03-23T10:28:58;14.32;44.09
79698;SHT31;69168;42.708;23.286;2024-03-23T10:31:33;14.48;43.10
79698;SHT31;69168;42.708;23.286;2024-03-23T10:33:59;14.42;43.38
79698;SHT31;69168;42.708;23.286;2024-03-23T10:36:26;14.57;42.85
79698;SHT31;69168;42.708;23.286;2024-03-23T10:38:54;14.73;43.52
79698;SHT31;69168;42.708;23.286;2024-03-23T10:41:20;14.84;41.54
79698;SHT31;69168;42.708;23.286;2024-03-23T10:43:47;14.95;41.96
79698;SHT31;69168;42.708;23.286;2024-03-23T10:46:13;15.04;42.52
79698;SHT31;69168;42.708;23.286;2024-03-23T10:48:38;15.24;40.13
79698;SHT31;69168;42.708;23.286;2024-03-23T10:51:07;15.28;39.06
79698;SHT31;69168;42.708;23.286;2024-03-23T10:53:35;15.14;39.13
79698;SHT31;69168;42.708;23.286;2024-03-23T10:56:05;15.12;39.20
79698;SHT31;69168;42.708;23.286;2024-03-23T11:00:57;15.67;39.87
79698;SHT31;69168;42.708;23.286;2024-03-23T11:03:30;15.77;37.18
79698;SHT31;69168;42.708;23.286;2024-03-23T11:05:56;15.39;37.50
79698;SHT31;69168;42.708;23.286;2024-03-23T11:13:49;15.85;37.81
79698;SHT31;69168;42.708;23.286;2024-03-23T11:16:27;16.15;37.46
79698;SHT31;69168;42.708;23.286;2024-03-23T11:19:34;16.29;37.23
79698;SHT31;69168;42.708;23.286;2024-03-23T11:22:00;16.70;37.82
79698;SHT31;69168;42.708;23.286;2024-03-23T11:24:26;16.94;35.51
79698;SHT31;69168;42.708;23.286;2024-03-23T11:26:52;16.76;34.61
79698;SHT31;69168;42.708;23.286;2024-03-23T11:29:18;16.56;35.03
79698;SHT31;69168;42.708;23.286;2024-03-23T11:31:51;17.02;37.07
79698;SHT31;69168;42.708;23.286;2024-03-23T11:34:18;17.38;35.68
79698;SHT31;69168;42.708;23.286;2024-03-23T11:36:44;17.56;34.07
79698;SHT31;69168;42.708;23.286;2024-03-23T11:39:16;17.34;33.77
79698;SHT31;69168;42.708;23.286;2024-03-23T11:42:00;17.17;33.99
79698;SHT31;69168;42.708;23.286;2024-03-23T11:44:26;17.45;34.26
79698;SHT31;69168;42.708;23.286;2024-03-23T11:46:52;17.48;33.26
79698;SHT31;69168;42.708;23.286;2024-03-23T11:51:55;18.06;33.22
79698;SHT31;69168;42.708;23.286;2024-03-23T11:54:25;18.08;31.79
79698;SHT31;69168;42.708;23.286;2024-03-23T11:57:00;18.41;32.53
79698;SHT31;69168;42.708;23.286;2024-03-23T11:59:35;18.70;31.56
79698;SHT31;69168;42.708;23.286;2024-03-23T12:02:06;19.18;31.97
79698;SHT31;69168;42.708;23.286;2024-03-23T12:04:32;19.47;30.88
79698;SHT31;69168;42.708;23.286;2024-03-23T12:07:17;19.48;30.67
79698;SHT31;69168;42.708;23.286;2024-03-23T12:09:48;19.96;30.85
79698;SHT31;69168;42.708;23.286;2024-03-23T12:12:27;20.34;31.02
79698;SHT31;69168;42.708;23.286;2024-03-23T12:15:06;20.88;29.89
79698;SHT31;69168;42.708;23.286;2024-03-23T12:17:32;20.93;28.99
79698;SHT31;69168;42.708;23.286;2024-03-23T12:19:58;21.20;30.00
79698;SHT31;69168;42.708;23.286;2024-03-23T12:22:24;21.45;29.32
79698;SHT31;69168;42.708;23.286;2024-03-23T12:24:52;21.64;29.23
79698;SHT31;69168;42.708;23.286;2024-03-23T12:27:18;21.95;28.77
79698;SHT31;69168;42.708;23.286;2024-03-23T12:29:44;21.92;27.86
79698;SHT31;69168;42.708;23.286;2024-03-23T12:32:13;21.36;26.63
79698;SHT31;69168;42.708;23.286;2024-03-23T12:34:39;21.59;25.33
79698;SHT31;69168;42.708;23.286;2024-03-23T12:37:05;21.61;23.41
79698;SHT31;69168;42.708;23.286;2024-03-23T12:39:36;21.53;22.36
79698;SHT31;69168;42.708;23.286;2024-03-23T12:42:02;21.38;23.17
79698;SHT31;69168;42.708;23.286;2024-03-23T12:44:28;21.64;23.32
79698;SHT31;69168;42.708;23.286;2024-03-23T12:46:54;21.86;22.51
79698;SHT31;69168;42.708;23.286;2024-03-23T12:49:19;21.89;21.64
79698;SHT31;69168;42.708;23.286;2024-03-23T12:51:53;21.92;21.48
79698;SHT31;69168;42.708;23.286;2024-03-23T12:54:19;20.85;21.22
79698;SHT31;69168;42.708;23.286;2024-03-23T12:56:45;20.49;22.35
79698;SHT31;69168;42.708;23.286;2024-03-23T12:59:11;20.67;21.80
79698;SHT31;69168;42.708;23.286;2024-03-23T13:01:38;20.69;21.58
79698;SHT31;69168;42.708;23.286;2024-03-23T13:04:04;20.72;22.35
79698;SHT31;69168;42.708;23.286;2024-03-23T13:06:29;20.65;22.09
79698;SHT31;69168;42.708;23.286;2024-03-23T13:09:00;20.47;22.54
79698;SHT31;69168;42.708;23.286;2024-03-23T13:11:26;20.86;22.77
79698;SHT31;69168;42.708;23.286;2024-03-23T13:13:52;21.23;23.17
79698;SHT31;69168;42.708;23.286;2024-03-23T13:16:17;21.13;20.84
79698;SHT31;69168;42.708;23.286;2024-03-23T13:18:43;20.89;21.45
79698;SHT31;69168;42.708;23.286;2024-03-23T13:21:08;21.11;21.59
79698;SHT31;69168;42.708;23.286;2024-03-23T13:23:34;21.23;21.24
79698;SHT31;69168;42.708;23.286;2024-03-23T13:26:01;20.90;21.45
79698;SHT31;69168;42.708;23.286;2024-03-23T13:28:26;20.81;22.10
79698;SHT31;69168;42.708;23.286;2024-03-23T13:30:55;21.51;21.42
79698;SHT31;69168;42.708;23.286;2024-03-23T13:33:21;22.06;21.19
79698;SHT31;69168;42.708;23.286;2024-03-23T13:38:16;21.37;21.34
79698;SHT31;69168;42.708;23.286;2024-03-23T13:40:52;21.43;21.29
79698;SHT31;69168;42.708;23.286;2024-03-23T13:43:18;22.08;21.12
79698;SHT31;69168;42.708;23.286;2024-03-23T13:45:44;22.75;20.48
79698;SHT31;69168;42.708;23.286;2024-03-23T13:48:10;22.89;20.93
79698;SHT31;69168;42.708;23.286;2024-03-23T13:50:36;23.05;20.20
79698;SHT31;69168;42.708;23.286;2024-03-23T13:53:01;23.61;21.07
79698;SHT31;69168;42.708;23.286;2024-03-23T13:55:27;24.12;21.77
79698;SHT31;69168;42.708;23.286;2024-03-23T13:57:52;24.35;19.30
79698;SHT31;69168;42.708;23.286;2024-03-23T14:00:18;24.12;19.75
79698;SHT31;69168;42.708;23.286;2024-03-23T14:02:44;23.94;19.99
79698;SHT31;69168;42.708;23.286;2024-03-23T14:05:10;22.99;20.92
79698;SHT31;69168;42.708;23.286;2024-03-23T14:07:36;23.40;20.72
79698;SHT31;69168;42.708;23.286;2024-03-23T14:10:03;23.47;20.54
79698;SHT31;69168;42.708;23.286;2024-03-23T14:12:29;23.16;20.20
79698;SHT31;69168;42.708;23.286;2024-03-23T14:14:54;23.44;20.43
79698;SHT31;69168;42.708;23.286;2024-03-23T14:17:20;23.20;20.52
79698;SHT31;69168;42.708;23.286;2024-03-23T14:19:45;23.37;20.34
79698;SHT31;69168;42.708;23.286;2024-03-23T14:22:11;22.69;20.70
79698;SHT31;69168;42.708;23.286;2024-03-23T14:24:37;23.20;21.50
79698;SHT31;69168;42.708;23.286;2024-03-23T14:27:02;23.82;21.17
79698;SHT31;69168;42.708;23.286;2024-03-23T14:29:30;24.20;21.06
79698;SHT31;69168;42.708;23.286;2024-03-23T14:31:56;24.63;20.94
79698;SHT31;69168;42.708;23.286;2024-03-23T14:34:22;25.04;20.78
79698;SHT31;69168;42.708;23.286;2024-03-23T14:36:47;25.39;20.61
79698;SHT31;69168;42.708;23.286;2024-03-23T14:39:13;24.44;19.73
79698;SHT31;69168;42.708;23.286;2024-03-23T14:41:40;24.26;20.26
79698;SHT31;69168;42.708;23.286;2024-03-23T14:44:05;23.77;20.75
79698;SHT31;69168;42.708;23.286;2024-03-23T14:46:31;23.42;21.36
79698;SHT31;69168;42.708;23.286;2024-03-23T14:48:57;23.33;21.39
79698;SHT31;69168;42.708;23.286;2024-03-23T14:51:23;22.60;21.74
79698;SHT31;69168;42.708;23.286;2024-03-23T14:53:48;22.54;22.10
79698;SHT31;69168;42.708;23.286;2024-03-23T14:56:15;22.40;22.51
79698;SHT31;69168;42.708;23.286;2024-03-23T14:58:43;22.29;22.33
79698;SHT31;69168;42.708;23.286;2024-03-23T15:01:10;22.20;22.47
79698;SHT31;69168;42.708;23.286;2024-03-23T15:03:37;22.24;22.62
79698;SHT31;69168;42.708;23.286;2024-03-23T15:06:07;21.72;23.11
79698;SHT31;69168;42.708;23.286;2024-03-23T15:08:36;22.02;22.75
79698;SHT31;69168;42.708;23.286;2024-03-23T15:11:03;22.32;22.59
79698;SHT31;69168;42.708;23.286;2024-03-23T15:13:37;22.50;22.64
79698;SHT31;69168;42.708;23.286;2024-03-23T15:16:04;22.26;22.82
79698;SHT31;69168;42.708;23.286;2024-03-23T15:18:30;22.20;22.85
79698;SHT31;69168;42.708;23.286;2024-03-23T15:20:58;22.36;22.97
79698;SHT31;69168;42.708;23.286;2024-03-23T15:23:44;22.00;23.14
79698;SHT31;69168;42.708;23.286;2024-03-23T15:26:09;21.96;23.12
79698;SHT31;69168;42.708;23.286;2024-03-23T15:28:36;22.12;23.12
79698;SHT31;69168;42.708;23.286;2024-03-23T15:31:28;21.99;23.05
79698;SHT31;69168;42.708;23.286;2024-03-23T15:33:55;21.91;23.13
79698;SHT31;69168;42.708;23.286;2024-03-23T15:36:26;22.09;22.88
79698;SHT31;69168;42.708;23.286;2024-03-23T15:38:52;22.05;23.27
79698;SHT31;69168;42.708;23.286;2024-03-23T15:41:20;21.50;23.43
79698;SHT31;69168;42.708;23.286;2024-03-23T15:43:48;20.99;24.00
79698;SHT31;69168;42.708;23.286;2024-03-23T15:46:14;20.85;24.22
79698;SHT31;69168;42.708;23.286;2024-03-23T15:48:40;20.81;24.74
79698;SHT31;69168;42.708;23.286;2024-03-23T15:51:11;20.85;24.48
79698;SHT31;69168;42.708;23.286;2024-03-23T15:53:40;20.76;24.54
79698;SHT31;69168;42.708;23.286;2024-03-23T15:56:05;20.82;24.52
79698;SHT31;69168;42.708;23.286;2024-03-23T15:58:32;21.06;24.24
79698;SHT31;69168;42.708;23.286;2024-03-23T16:01:06;20.73;24.37
79698;SHT31;69168;42.708;23.286;2024-03-23T16:03:34;20.37;25.05
79698;SHT31;69168;42.708;23.286;2024-03-23T16:06:04;19.65;26.06
79698;SHT31;69168;42.708;23.286;2024-03-23T16:08:32;19.30;26.50
79698;SHT31;69168;42.708;23.286;2024-03-23T16:11:05;19.18;26.61
79698;SHT31;69168;42.708;23.286;2024-03-23T16:13:32;19.04;26.64
79698;SHT31;69168;42.708;23.286;2024-03-23T16:15:59;18.85;26.74
79698;SHT31;69168;42.708;23.286;2024-03-23T16:18:25;18.79;27.14
79698;SHT31;69168;42.708;23.286;2024-03-23T16:21:03;18.70;26.84
79698;SHT31;69168;42.708;23.286;2024-03-23T16:23:39;18.66;27.02
79698;SHT31;69168;42.708;23.286;2024-03-23T16:26:06;18.62;27.51
79698;SHT31;69168;42.708;23.286;2024-03-23T16:28:34;18.34;27.64
79698;SHT31;69168;42.708;23.286;2024-03-23T16:31:08;18.25;28.07
79698;SHT31;69168;42.708;23.286;2024-03-23T16:33:34;18.11;28.12
79698;SHT31;69168;42.708;23.286;2024-03-23T16:36:07;17.97;28.03